createdAt,value
2023-01-27T00:02:01.969Z,59.50
2023-01-27T00:04:32.277Z,67.90
2023-01-27T00:07:02.510Z,72.75
2023-01-27T00:09:32.663Z,62.90
2023-01-27T00:12:21.295Z,76.18
2023-01-27T00:14:51.449Z,56.47
2023-01-27T00:17:21.683Z,54.83
2023-01-27T00:19:51.759Z,50.38
2023-01-27T00:22:40.423Z,58.95
2023-01-27T00:25:10.705Z,61.25
2023-01-27T00:27:40.837Z,54.17
2023-01-27T00:30:12.602Z,62.47
2023-01-27T00:33:01.700Z,63.75
2023-01-27T00:35:32.371Z,48.97
2023-01-27T00:38:02.459Z,64.80
2023-01-27T00:40:32.574Z,65.80
2023-01-27T00:43:02.713Z,59.22
2023-01-27T00:45:51.402Z,66.45
2023-01-27T00:48:21.482Z,66.25
2023-01-27T00:50:51.600Z,69.90
2023-01-27T00:53:21.706Z,67.30
2023-01-27T00:55:52.130Z,79.82
2023-01-27T00:58:22.749Z,75.53
2023-01-27T01:00:54.373Z,58.20
2023-01-27T01:03:24.558Z,69.70
2023-01-27T01:05:54.721Z,60.55
2023-01-27T01:08:25.520Z,60.40
2023-01-27T01:10:55.729Z,59.25
2023-01-27T01:13:27.895Z,60.03
2023-01-27T01:15:58.397Z,57.35
2023-01-27T01:18:28.607Z,61.08
2023-01-27T01:20:58.795Z,59.85
2023-01-27T01:23:28.986Z,67.32
2023-01-27T01:25:59.501Z,74.40
2023-01-27T01:28:29.800Z,65.90
2023-01-27T01:31:10.789Z,65.60
2023-01-27T01:33:40.976Z,86.78
2023-01-27T01:36:17.817Z,72.50
2023-01-27T01:38:48.517Z,58.28
2023-01-27T01:41:20.993Z,61.50
2023-01-27T01:43:52.126Z,71.45
2023-01-27T01:46:22.646Z,67.57
2023-01-27T01:49:00.121Z,69.03
2023-01-27T01:51:35.363Z,79.85
2023-01-27T01:54:14.146Z,69.88
2023-01-27T01:56:50.094Z,81.85
2023-01-27T01:59:28.794Z,86.88
2023-01-27T02:02:05.937Z,90.88
2023-01-27T02:07:26.637Z,67.13
2023-01-27T02:09:58.667Z,74.85
2023-01-27T02:12:28.833Z,66.75
2023-01-27T02:14:59.236Z,62.00
2023-01-27T02:17:29.664Z,70.20
2023-01-27T02:20:11.886Z,69.78
2023-01-27T02:23:12.136Z,70.28
2023-01-27T02:25:47.856Z,72.78
2023-01-27T02:28:18.188Z,65.47
2023-01-27T02:30:48.559Z,64.40
2023-01-27T02:33:18.800Z,88.60
2023-01-27T02:36:06.476Z,84.57
2023-01-27T02:38:41.223Z,84.28
2023-01-27T02:41:29.685Z,82.75
2023-01-27T02:44:00.443Z,68.47
2023-01-27T02:46:31.160Z,74.22
2023-01-27T02:49:01.539Z,88.07
2023-01-27T02:51:32.022Z,78.32
2023-01-27T02:54:02.720Z,86.53
2023-01-27T02:56:33.113Z,82.40
2023-01-27T02:59:03.331Z,71.95
2023-01-27T03:01:33.752Z,63.75
2023-01-27T03:04:04.015Z,70.32
2023-01-27T03:06:34.189Z,58.25
2023-01-27T03:09:06.216Z,62.90
2023-01-27T03:11:55.097Z,45.78
2023-01-27T03:14:43.695Z,59.97
2023-01-27T03:17:32.318Z,71.07
2023-01-27T03:20:02.498Z,69.28
2023-01-27T03:22:32.629Z,64.72
2023-01-27T03:25:02.847Z,63.35
2023-01-27T03:27:32.998Z,60.13
2023-01-27T03:30:04.102Z,62.85
2023-01-27T03:32:34.483Z,68.70
2023-01-27T03:35:05.508Z,65.80
2023-01-27T03:37:54.123Z,69.68
2023-01-27T03:40:42.966Z,65.43
2023-01-27T03:43:31.682Z,56.08
2023-01-27T03:46:20.016Z,72.75
2023-01-27T03:48:52.567Z,60.50
2023-01-27T03:51:24.863Z,70.03
2023-01-27T03:53:55.118Z,56.13
2023-01-27T03:56:25.340Z,63.95
2023-01-27T03:58:55.486Z,55.00
2023-01-27T04:01:25.606Z,63.10
2023-01-27T04:04:14.197Z,63.30
2023-01-27T04:07:01.147Z,73.03
2023-01-27T04:12:06.100Z,53.08
2023-01-27T04:14:46.477Z,58.47
2023-01-27T04:17:18.693Z,73.78
2023-01-27T04:19:49.225Z,70.15
2023-01-27T04:22:19.411Z,82.35
2023-01-27T04:24:50.396Z,66.32
2023-01-27T04:27:20.568Z,95.07
2023-01-27T04:29:50.811Z,73.25
2023-01-27T04:32:21.046Z,72.78
2023-01-27T04:34:51.219Z,74.82
2023-01-27T04:37:21.416Z,73.13
2023-01-27T04:39:51.528Z,87.15
2023-01-27T04:42:21.865Z,80.97
2023-01-27T04:44:52.049Z,85.45
2023-01-27T04:47:22.877Z,69.60
2023-01-27T04:49:53.028Z,61.40
2023-01-27T04:52:23.211Z,72.13
2023-01-27T04:54:53.350Z,64.10
2023-01-27T04:57:23.525Z,78.15
2023-01-27T04:59:53.587Z,70.13
2023-01-27T05:02:23.787Z,64.13
2023-01-27T05:04:54.045Z,78.38
2023-01-27T05:07:24.627Z,68.93
2023-01-27T05:09:54.839Z,64.25
2023-01-27T05:12:25.408Z,68.88
2023-01-27T05:14:55.644Z,61.88
2023-01-27T05:17:28.038Z,69.35
2023-01-27T05:19:58.173Z,67.55
2023-01-27T05:22:28.318Z,74.07
2023-01-27T05:24:58.542Z,66.10
2023-01-27T05:27:28.940Z,73.47
2023-01-27T05:29:59.096Z,55.03
2023-01-27T05:32:29.143Z,70.00
2023-01-27T05:34:59.353Z,58.47
2023-01-27T05:37:29.922Z,68.32
2023-01-27T05:40:00.111Z,61.38
2023-01-27T05:42:30.253Z,68.97
2023-01-27T05:45:00.469Z,74.82
2023-01-27T05:47:30.573Z,78.03
2023-01-27T05:50:00.716Z,75.35
2023-01-27T05:52:30.970Z,85.50
2023-01-27T05:55:01.089Z,75.70
2023-01-27T05:57:31.156Z,76.20
2023-01-27T06:00:01.301Z,76.28
2023-01-27T06:02:31.387Z,80.03
2023-01-27T06:05:01.670Z,77.70
2023-01-27T06:07:31.783Z,65.50
2023-01-27T06:10:01.886Z,67.80
2023-01-27T06:12:32.026Z,54.50
2023-01-27T06:15:02.973Z,53.83
2023-01-27T06:17:33.137Z,59.55
2023-01-27T06:20:03.312Z,46.22
2023-01-27T06:22:33.389Z,53.90
2023-01-27T06:25:03.570Z,56.72
2023-01-27T06:27:33.728Z,53.88
2023-01-27T06:30:04.181Z,46.70
2023-01-27T06:32:36.968Z,61.83
2023-01-27T06:35:07.648Z,49.80
2023-01-27T06:37:38.006Z,51.70
2023-01-27T06:40:08.718Z,49.42
2023-01-27T06:42:42.616Z,71.53
2023-01-27T06:45:13.692Z,51.25
2023-01-27T06:47:43.914Z,49.13
2023-01-27T06:50:14.379Z,46.92
2023-01-27T06:52:45.059Z,53.55
2023-01-27T06:55:15.352Z,50.33
2023-01-27T06:57:49.340Z,42.17
2023-01-27T07:00:20.031Z,48.72
2023-01-27T07:02:50.909Z,34.17
2023-01-27T07:05:21.133Z,48.28
2023-01-27T07:07:51.391Z,43.55
2023-01-27T07:10:21.560Z,47.22
2023-01-27T07:12:51.785Z,47.47
2023-01-27T07:15:21.914Z,37.65
2023-01-27T07:17:52.048Z,42.65
2023-01-27T07:20:22.289Z,42.40
2023-01-27T07:22:52.464Z,36.47
2023-01-27T07:25:22.702Z,33.90
2023-01-27T07:27:53.704Z,42.30
2023-01-27T07:30:23.932Z,33.80
2023-01-27T07:32:55.615Z,36.28
2023-01-27T07:35:25.859Z,29.98
2023-01-27T07:37:57.615Z,29.65
2023-01-27T07:40:27.755Z,28.08
2023-01-27T07:43:01.825Z,28.63
2023-01-27T07:45:31.981Z,16.02
2023-01-27T07:48:04.875Z,12.65
2023-01-27T07:50:36.507Z,9.63
2023-01-27T07:53:06.731Z,9.35
2023-01-27T07:55:36.909Z,13.93
2023-01-27T07:58:07.654Z,8.90
2023-01-27T08:00:38.162Z,11.35
2023-01-27T08:03:19.686Z,13.88
2023-01-27T08:05:50.499Z,8.27
2023-01-27T08:08:20.613Z,17.00
2023-01-27T08:10:51.646Z,13.77
2023-01-27T08:13:21.776Z,12.00
2023-01-27T08:16:02.586Z,18.85
2023-01-27T08:18:36.407Z,12.15
2023-01-27T08:21:10.071Z,14.05
2023-01-27T08:23:40.366Z,11.40
2023-01-27T08:26:10.652Z,34.90
2023-01-27T08:28:41.270Z,36.35
2023-01-27T08:31:14.412Z,21.77
2023-01-27T08:33:49.823Z,17.80
2023-01-27T08:36:22.045Z,16.67
2023-01-27T08:38:52.286Z,14.43
2023-01-27T08:41:25.948Z,13.43
2023-01-27T08:43:56.154Z,13.00
2023-01-27T08:46:27.111Z,14.60
2023-01-27T08:48:58.000Z,16.25
2023-01-27T08:51:28.927Z,11.35
2023-01-27T08:53:59.197Z,8.63
2023-01-27T08:56:30.959Z,9.43
2023-01-27T08:59:01.302Z,6.68
2023-01-27T09:01:31.606Z,5.80
2023-01-27T09:04:01.820Z,6.05
2023-01-27T09:06:32.013Z,5.80
2023-01-27T09:09:12.278Z,5.93
2023-01-27T09:11:45.411Z,6.03
2023-01-27T09:14:15.520Z,5.38
2023-01-27T09:16:45.755Z,10.30
2023-01-27T09:19:16.538Z,10.07
2023-01-27T09:21:46.655Z,10.05
2023-01-27T09:24:18.066Z,9.10
2023-01-27T09:26:48.738Z,10.63
2023-01-27T09:29:18.936Z,7.95
2023-01-27T09:31:49.298Z,7.32
2023-01-27T09:34:19.819Z,5.53
2023-01-27T09:36:55.136Z,8.52
2023-01-27T09:39:26.835Z,15.65
2023-01-27T09:42:18.400Z,7.38
2023-01-27T09:45:19.393Z,13.15
2023-01-27T09:48:04.750Z,6.72
2023-01-27T09:50:48.585Z,6.55
2023-01-27T09:53:45.983Z,4.85
2023-01-27T09:56:27.022Z,6.70
2023-01-27T09:59:26.877Z,9.55
2023-01-27T10:02:08.442Z,5.47
2023-01-27T10:04:44.643Z,11.55
2023-01-27T10:07:26.957Z,6.20
2023-01-27T10:10:03.649Z,7.50
2023-01-27T10:12:54.847Z,10.80
2023-01-27T10:15:40.136Z,9.15
2023-01-27T10:18:36.812Z,8.15
2023-01-27T10:24:06.519Z,12.00
2023-01-27T10:26:55.953Z,9.80
2023-01-27T10:29:43.567Z,4.05
2023-01-27T10:32:39.079Z,15.35
2023-01-27T10:35:18.462Z,15.23
2023-01-27T10:38:06.224Z,13.05
2023-01-27T10:40:50.473Z,17.83
2023-01-27T10:43:43.396Z,18.33
2023-01-27T10:47:07.745Z,11.82
2023-01-27T10:49:45.678Z,7.55
2023-01-27T10:52:21.898Z,5.00
2023-01-27T10:54:56.347Z,4.60
2023-01-27T10:57:35.643Z,4.38
2023-01-27T11:00:57.881Z,10.55
2023-01-27T11:03:41.430Z,6.85
2023-01-27T11:06:20.457Z,5.45
2023-01-27T11:09:05.481Z,4.38
2023-01-27T11:11:47.034Z,4.95
2023-01-27T11:14:27.984Z,3.53
2023-01-27T11:17:20.376Z,13.60
2023-01-27T11:20:28.651Z,11.10
2023-01-27T11:23:29.606Z,10.45
2023-01-27T11:26:23.634Z,11.38
2023-01-27T11:29:09.058Z,11.45
2023-01-27T11:31:58.237Z,9.75
2023-01-27T11:34:57.729Z,6.80
2023-01-27T11:37:35.838Z,6.53
2023-01-27T11:40:23.778Z,9.38
2023-01-27T11:42:57.157Z,7.20
2023-01-27T11:45:30.728Z,7.13
2023-01-27T11:48:02.729Z,2.65
2023-01-27T11:50:36.694Z,5.35
2023-01-27T11:53:25.645Z,6.95
2023-01-27T11:56:04.143Z,8.02
2023-01-27T11:58:45.512Z,12.70
2023-01-27T12:01:24.207Z,14.55
2023-01-27T12:04:04.693Z,11.82
2023-01-27T12:06:38.997Z,13.45
2023-01-27T12:09:31.408Z,9.13
2023-01-27T12:12:22.855Z,14.02
2023-01-27T12:14:55.379Z,13.70
2023-01-27T12:17:45.133Z,12.25
2023-01-27T12:20:45.289Z,13.70
2023-01-27T12:23:27.270Z,16.55
2023-01-27T12:26:03.515Z,21.40
2023-01-27T12:28:38.171Z,10.63
2023-01-27T12:31:16.501Z,9.52
2023-01-27T12:33:57.020Z,6.43
2023-01-27T12:36:30.180Z,7.80
2023-01-27T12:39:01.848Z,4.25
2023-01-27T12:41:33.447Z,7.15
2023-01-27T12:44:16.790Z,7.22
2023-01-27T12:47:21.818Z,6.03
2023-01-27T12:49:52.088Z,6.90
2023-01-27T12:52:22.396Z,7.85
2023-01-27T12:54:54.306Z,4.03
2023-01-27T12:57:24.751Z,4.70
2023-01-27T12:59:57.450Z,5.32
2023-01-27T13:02:32.712Z,10.57
2023-01-27T13:05:08.347Z,13.75
2023-01-27T13:07:45.085Z,8.55
2023-01-27T13:12:55.702Z,8.18
2023-01-27T13:15:28.742Z,8.00
2023-01-27T13:18:01.434Z,7.57
2023-01-27T13:20:46.045Z,6.63
2023-01-27T13:23:21.013Z,5.18
2023-01-27T13:26:13.364Z,7.90
2023-01-27T13:28:53.215Z,4.47
2023-01-27T13:31:43.460Z,10.43
2023-01-27T13:34:45.678Z,5.60
2023-01-27T13:37:28.525Z,7.82
2023-01-27T13:40:03.503Z,6.72
2023-01-27T13:42:52.108Z,5.68
2023-01-27T13:45:29.493Z,8.27
2023-01-27T13:48:04.552Z,5.05
2023-01-27T13:51:08.910Z,4.13
2023-01-27T13:53:39.957Z,5.07
2023-01-27T13:56:16.340Z,4.93
2023-01-27T13:59:20.153Z,6.07
2023-01-27T14:02:02.928Z,11.20
2023-01-27T14:04:39.151Z,10.68
2023-01-27T14:07:25.790Z,11.50
2023-01-27T14:10:14.387Z,9.52
2023-01-27T14:13:12.103Z,10.50
2023-01-27T14:16:17.694Z,10.68
2023-01-27T14:18:55.763Z,8.88
2023-01-27T14:21:44.196Z,12.90
2023-01-27T14:24:49.955Z,9.27
2023-01-27T14:27:29.502Z,10.07
2023-01-27T14:30:05.392Z,8.77
2023-01-27T14:33:12.862Z,8.35
2023-01-27T14:35:47.222Z,12.00
2023-01-27T14:38:54.210Z,5.35
2023-01-27T14:41:46.067Z,6.47
2023-01-27T14:44:38.395Z,4.03
2023-01-27T14:47:31.882Z,6.20
2023-01-27T14:50:14.254Z,5.85
2023-01-27T14:52:52.830Z,7.32
2023-01-27T14:55:36.220Z,17.00
2023-01-27T14:58:12.385Z,14.25
2023-01-27T15:01:19.549Z,7.35
2023-01-27T15:04:17.328Z,6.13
2023-01-27T15:06:56.933Z,9.05
2023-01-27T15:10:03.709Z,16.13
2023-01-27T15:13:15.947Z,8.82
2023-01-27T15:16:00.413Z,23.10
2023-01-27T15:18:53.644Z,38.55
2023-01-27T15:21:48.695Z,23.15
2023-01-27T15:24:46.389Z,23.10
2023-01-27T15:27:16.834Z,9.10
2023-01-27T15:29:47.159Z,19.15
2023-01-27T15:32:21.095Z,6.85
2023-01-27T15:34:54.064Z,6.32
2023-01-27T15:37:30.679Z,17.80
2023-01-27T15:40:16.796Z,9.65
2023-01-27T15:43:01.046Z,28.67
2023-01-27T15:45:32.395Z,33.92
2023-01-27T15:48:06.814Z,13.63
2023-01-27T15:50:39.683Z,22.10
2023-01-27T15:53:17.996Z,20.35
2023-01-27T15:55:54.733Z,33.08
2023-01-27T15:58:53.888Z,13.05
2023-01-27T16:01:27.731Z,15.98
2023-01-27T16:04:10.345Z,11.55
2023-01-27T16:06:54.215Z,22.00
2023-01-27T16:09:27.027Z,16.38
2023-01-27T16:12:03.924Z,17.48
2023-01-27T16:14:40.886Z,24.17
2023-01-27T16:17:18.170Z,13.68
2023-01-27T16:19:53.659Z,17.02
2023-01-27T16:22:26.480Z,17.05
2023-01-27T16:25:04.354Z,12.75
2023-01-27T16:27:44.395Z,19.33
2023-01-27T16:30:19.485Z,11.73
2023-01-27T16:33:04.503Z,18.30
2023-01-27T16:35:48.360Z,10.63
2023-01-27T16:38:31.578Z,11.95
2023-01-27T16:41:09.391Z,6.18
2023-01-27T16:43:45.470Z,7.35
2023-01-27T16:46:40.058Z,25.63
2023-01-27T16:49:33.446Z,18.35
2023-01-27T16:52:05.508Z,14.40
2023-01-27T16:54:40.317Z,11.07
2023-01-27T16:57:42.350Z,6.88
2023-01-27T17:00:25.676Z,12.27
2023-01-27T17:02:59.668Z,12.05
2023-01-27T17:05:30.437Z,8.43
2023-01-27T17:08:04.889Z,7.95
2023-01-27T17:10:35.647Z,6.90
2023-01-27T17:13:06.055Z,10.15
2023-01-27T17:15:38.775Z,8.07
2023-01-27T17:18:11.164Z,40.55
2023-01-27T17:20:46.068Z,15.30
2023-01-27T17:23:33.304Z,10.60
2023-01-27T17:26:15.525Z,12.82
2023-01-27T17:28:47.700Z,7.90
2023-01-27T17:31:21.595Z,8.23
2023-01-27T17:34:01.234Z,6.43
2023-01-27T17:36:31.602Z,6.85
2023-01-27T17:39:01.754Z,5.40
2023-01-27T17:41:38.066Z,8.77
2023-01-27T17:44:13.547Z,30.27
2023-01-27T17:46:43.782Z,18.42
2023-01-27T17:49:18.501Z,13.90
2023-01-27T17:51:58.204Z,12.18
2023-01-27T17:54:34.229Z,9.25
2023-01-27T17:57:25.317Z,11.35
2023-01-27T18:00:07.045Z,11.15
2023-01-27T18:03:02.778Z,12.35
2023-01-27T18:05:34.128Z,31.95
2023-01-27T18:08:05.362Z,13.90
2023-01-27T18:10:35.459Z,8.88
2023-01-27T18:13:27.635Z,12.15
2023-01-27T18:16:14.936Z,8.25
2023-01-27T18:18:46.379Z,5.03
2023-01-27T18:21:27.990Z,10.80
2023-01-27T18:24:00.718Z,5.20
2023-01-27T18:26:40.509Z,16.80
2023-01-27T18:29:22.967Z,5.30
2023-01-27T18:31:59.635Z,6.93
2023-01-27T18:34:32.736Z,5.63
2023-01-27T18:37:08.787Z,4.97
2023-01-27T18:39:40.995Z,7.68
2023-01-27T18:42:15.228Z,8.30
2023-01-27T18:44:45.734Z,15.25
2023-01-27T18:47:18.886Z,7.65
2023-01-27T18:50:18.349Z,9.05
2023-01-27T18:52:50.208Z,11.65
2023-01-27T18:55:29.142Z,10.55
2023-01-27T18:58:00.697Z,8.93
2023-01-27T19:00:50.684Z,7.53
2023-01-27T19:03:30.767Z,7.13
2023-01-27T19:06:01.651Z,8.48
2023-01-27T19:08:31.928Z,9.55
2023-01-27T19:11:02.273Z,8.68
2023-01-27T19:13:32.679Z,12.65
2023-01-27T19:16:02.981Z,8.30
2023-01-27T19:18:35.082Z,7.93
2023-01-27T19:21:05.970Z,10.65
2023-01-27T19:23:36.196Z,14.57
2023-01-27T19:26:14.717Z,12.52
2023-01-27T19:28:52.056Z,12.00
2023-01-27T19:31:22.558Z,10.80
2023-01-27T19:33:55.552Z,8.15
2023-01-27T19:36:29.105Z,6.13
2023-01-27T19:39:09.527Z,14.10
2023-01-27T19:41:39.843Z,6.35
2023-01-27T19:44:10.807Z,7.72
2023-01-27T19:46:42.203Z,9.25
2023-01-27T19:49:17.407Z,9.48
2023-01-27T19:51:47.714Z,11.60
2023-01-27T19:54:19.480Z,11.90
2023-01-27T19:56:50.914Z,11.18
2023-01-27T19:59:21.009Z,8.18
2023-01-27T20:01:51.165Z,7.65
2023-01-27T20:04:21.311Z,7.15
2023-01-27T20:06:51.488Z,10.88
2023-01-27T20:09:21.600Z,11.05
2023-01-27T20:11:51.752Z,7.18
2023-01-27T20:14:26.247Z,7.40
2023-01-27T20:16:56.383Z,8.30
2023-01-27T20:19:26.541Z,8.43
2023-01-27T20:21:59.132Z,13.63
2023-01-27T20:24:29.529Z,9.70
2023-01-27T20:26:59.694Z,6.80
2023-01-27T20:29:30.264Z,7.43
2023-01-27T20:32:00.621Z,3.75
2023-01-27T20:34:30.930Z,5.55
2023-01-27T20:37:00.995Z,6.68
2023-01-27T20:39:31.747Z,8.18
2023-01-27T20:42:02.001Z,6.07
2023-01-27T20:44:32.120Z,9.55
2023-01-27T20:47:02.201Z,11.93
2023-01-27T20:49:34.360Z,11.85
2023-01-27T20:52:04.525Z,11.82
2023-01-27T20:54:34.583Z,18.48
2023-01-27T20:57:04.951Z,16.40
2023-01-27T20:59:35.058Z,9.02
2023-01-27T21:02:05.362Z,9.90
2023-01-27T21:04:35.483Z,8.90
2023-01-27T21:07:05.978Z,9.02
2023-01-27T21:09:36.187Z,7.90
2023-01-27T21:12:06.618Z,7.10
2023-01-27T21:14:39.951Z,6.93
2023-01-27T21:17:11.889Z,7.50
2023-01-27T21:19:42.075Z,8.00
2023-01-27T21:22:12.170Z,6.38
2023-01-27T21:24:45.086Z,5.35
2023-01-27T21:27:15.272Z,13.80
2023-01-27T21:29:48.226Z,7.05
2023-01-27T21:32:18.438Z,5.68
2023-01-27T21:34:48.612Z,6.15
2023-01-27T21:37:18.741Z,7.85
2023-01-27T21:39:48.836Z,6.22
2023-01-27T21:42:18.957Z,7.03
2023-01-27T21:45:07.654Z,6.72
2023-01-27T21:47:37.758Z,8.50
2023-01-27T21:50:11.064Z,13.80
2023-01-27T21:52:46.793Z,10.95
2023-01-27T21:55:22.653Z,13.57
2023-01-27T21:57:53.871Z,16.98
2023-01-27T22:00:26.921Z,20.13
2023-01-27T22:03:01.869Z,11.93
2023-01-27T22:05:33.747Z,11.20
2023-01-27T22:08:06.509Z,9.75
2023-01-27T22:10:37.555Z,11.32
2023-01-27T22:13:09.860Z,8.57
2023-01-27T22:15:40.046Z,8.73
2023-01-27T22:18:10.122Z,9.30
2023-01-27T22:20:40.211Z,5.30
2023-01-27T22:23:10.272Z,5.60
2023-01-27T22:25:40.315Z,7.60
2023-01-27T22:28:10.471Z,5.57
2023-01-27T22:30:40.599Z,9.32
2023-01-27T22:33:12.007Z,7.75
2023-01-27T22:35:42.268Z,6.22
2023-01-27T22:38:12.396Z,8.02
2023-01-27T22:40:42.496Z,7.20
2023-01-27T22:43:12.706Z,8.50
2023-01-27T22:45:43.877Z,7.22
2023-01-27T22:48:14.596Z,8.57
2023-01-27T22:50:44.822Z,8.77
2023-01-27T22:53:15.034Z,9.45
2023-01-27T22:55:45.219Z,6.32
2023-01-27T22:58:15.270Z,5.25
2023-01-27T23:00:45.387Z,5.13
2023-01-27T23:03:15.570Z,5.85
2023-01-27T23:05:46.264Z,5.30
2023-01-27T23:08:20.681Z,4.25
2023-01-27T23:10:51.248Z,3.88
2023-01-27T23:13:21.419Z,3.60
2023-01-27T23:15:51.746Z,4.75
2023-01-27T23:18:23.714Z,5.05
2023-01-27T23:20:53.952Z,3.72
2023-01-27T23:23:24.145Z,6.80
2023-01-27T23:25:54.459Z,6.00
2023-01-27T23:28:24.961Z,3.78
2023-01-27T23:30:55.186Z,5.10
2023-01-27T23:33:27.516Z,3.08
2023-01-27T23:35:57.979Z,4.40
2023-01-27T23:38:33.571Z,2.55
2023-01-27T23:41:06.708Z,1.65
2023-01-27T23:43:36.788Z,2.00
2023-01-27T23:46:07.049Z,1.42
2023-01-27T23:48:37.263Z,2.42
2023-01-27T23:51:09.704Z,4.70
2023-01-27T23:53:41.527Z,5.30
2023-01-27T23:56:17.601Z,4.25
2023-01-27T23:58:48.359Z,2.78
